< < Back
Terminal Aerodrome Forecast


Current Version              Previous Versions:   1  2  3  4  5  6  7  8  9  

Terminal Aerodrome Forecast

779
FTUS42 KGSP 291127
TAFAVL
TAF
KAVL 291127Z 2912/3012 VRB02KT 1SM BR SCT001 SCT200
      TEMPO 2912/2914 1/4SM FG OVC001
     FM291400 35005KT P6SM SCT200=



Latest METAR

144
SAUS70 KWBC 300700 RRH
MTRAVL
METAR KAVL 300654Z AUTO 00000KT 10SM CLR 18/17 A3021 RMK AO2 SLP203
T01830167


USA.gov is the U.S. government's official web portal to all federal, state and local government web resources and services.